sensor_id;sensor_type;location;lat;lon;timestamp;temperature;humidity
52725;DHT22;38621;52.830;6.914;2023-12-29T00:00:33;9.40;99.90
52725;DHT22;38621;52.830;6.914;2023-12-29T00:02:59;9.40;99.90
52725;DHT22;38621;52.830;6.914;2023-12-29T00:05:24;9.40;99.90
52725;DHT22;38621;52.830;6.914;2023-12-29T00:07:50;9.40;99.90
52725;DHT22;38621;52.830;6.914;2023-12-29T00:10:16;9.40;99.90
52725;DHT22;38621;52.830;6.914;2023-12-29T00:12:41;9.40;99.90
52725;DHT22;38621;52.830;6.914;2023-12-29T00:15:08;9.40;99.90
52725;DHT22;38621;52.830;6.914;2023-12-29T00:17:33;9.40;99.90
52725;DHT22;38621;52.830;6.914;2023-12-29T00:20:04;9.40;99.90
52725;DHT22;38621;52.830;6.914;2023-12-29T00:22:30;9.50;99.90
52725;DHT22;38621;52.830;6.914;2023-12-29T00:24:55;9.50;99.90
52725;DHT22;38621;52.830;6.914;2023-12-29T00:27:21;9.50;99.90
52725;DHT22;38621;52.830;6.914;2023-12-29T00:29:47;9.50;99.90
52725;DHT22;38621;52.830;6.914;2023-12-29T00:32:13;9.50;99.90
52725;DHT22;38621;52.830;6.914;2023-12-29T00:34:39;9.50;99.90
52725;DHT22;38621;52.830;6.914;2023-12-29T00:37:05;9.60;99.90
52725;DHT22;38621;52.830;6.914;2023-12-29T00:39:31;9.50;99.90
52725;DHT22;38621;52.830;6.914;2023-12-29T00:42:04;9.30;99.90
52725;DHT22;38621;52.830;6.914;2023-12-29T00:44:30;9.10;99.90
52725;DHT22;38621;52.830;6.914;2023-12-29T00:46:56;9.10;99.90
52725;DHT22;38621;52.830;6.914;2023-12-29T00:49:21;9.00;99.90
52725;DHT22;38621;52.830;6.914;2023-12-29T00:51:48;9.00;99.90
52725;DHT22;38621;52.830;6.914;2023-12-29T00:54:13;9.00;99.90
52725;DHT22;38621;52.830;6.914;2023-12-29T00:56:39;9.00;99.90
52725;DHT22;38621;52.830;6.914;2023-12-29T00:59:05;9.10;99.90
52725;DHT22;38621;52.830;6.914;2023-12-29T01:01:34;9.10;99.90
52725;DHT22;38621;52.830;6.914;2023-12-29T01:04:01;9.10;99.90
52725;DHT22;38621;52.830;6.914;2023-12-29T01:06:26;9.10;99.90
52725;DHT22;38621;52.830;6.914;2023-12-29T01:08:52;9.10;99.90
52725;DHT22;38621;52.830;6.914;2023-12-29T01:11:17;9.10;99.90
52725;DHT22;38621;52.830;6.914;2023-12-29T01:13:43;9.00;99.90
52725;DHT22;38621;52.830;6.914;2023-12-29T01:16:09;8.90;99.90
52725;DHT22;38621;52.830;6.914;2023-12-29T01:18:34;8.90;99.90
52725;DHT22;38621;52.830;6.914;2023-12-29T01:21:00;8.80;99.90
52725;DHT22;38621;52.830;6.914;2023-12-29T01:23:26;8.80;99.90
52725;DHT22;38621;52.830;6.914;2023-12-29T01:25:51;8.80;99.90
52725;DHT22;38621;52.830;6.914;2023-12-29T01:28:17;8.80;99.90
52725;DHT22;38621;52.830;6.914;2023-12-29T01:30:43;8.90;99.90
52725;DHT22;38621;52.830;6.914;2023-12-29T01:33:08;8.90;99.90
52725;DHT22;38621;52.830;6.914;2023-12-29T01:35:34;8.90;99.90
52725;DHT22;38621;52.830;6.914;2023-12-29T01:38:00;8.80;99.90
52725;DHT22;38621;52.830;6.914;2023-12-29T01:40:26;8.80;99.90
52725;DHT22;38621;52.830;6.914;2023-12-29T01:42:52;8.80;99.90
52725;DHT22;38621;52.830;6.914;2023-12-29T01:45:24;8.80;99.90
52725;DHT22;38621;52.830;6.914;2023-12-29T01:47:51;8.80;99.90
52725;DHT22;38621;52.830;6.914;2023-12-29T01:50:21;8.80;99.90
52725;DHT22;38621;52.830;6.914;2023-12-29T01:52:49;8.80;99.90
52725;DHT22;38621;52.830;6.914;2023-12-29T01:55:18;8.90;99.90
52725;DHT22;38621;52.830;6.914;2023-12-29T01:57:45;9.00;99.90
52725;DHT22;38621;52.830;6.914;2023-12-29T02:00:12;9.00;99.90
52725;DHT22;38621;52.830;6.914;2023-12-29T02:02:39;9.00;99.90
52725;DHT22;38621;52.830;6.914;2023-12-29T02:05:05;9.10;99.90
52725;DHT22;38621;52.830;6.914;2023-12-29T02:07:32;9.10;99.90
52725;DHT22;38621;52.830;6.914;2023-12-29T02:09:58;9.10;99.90
52725;DHT22;38621;52.830;6.914;2023-12-29T02:12:25;9.00;99.90
52725;DHT22;38621;52.830;6.914;2023-12-29T02:14:51;9.00;99.90
52725;DHT22;38621;52.830;6.914;2023-12-29T02:17:29;9.00;99.90
52725;DHT22;38621;52.830;6.914;2023-12-29T02:19:56;9.10;99.90
52725;DHT22;38621;52.830;6.914;2023-12-29T02:22:22;9.10;99.90
52725;DHT22;38621;52.830;6.914;2023-12-29T02:24:48;9.10;99.90
52725;DHT22;38621;52.830;6.914;2023-12-29T02:30:20;9.10;99.90
52725;DHT22;38621;52.830;6.914;2023-12-29T02:32:48;9.20;99.90
52725;DHT22;38621;52.830;6.914;2023-12-29T02:35:19;9.30;99.90
52725;DHT22;38621;52.830;6.914;2023-12-29T02:37:46;9.30;99.90
52725;DHT22;38621;52.830;6.914;2023-12-29T02:40:14;9.30;99.90
52725;DHT22;38621;52.830;6.914;2023-12-29T02:42:45;9.30;99.90
52725;DHT22;38621;52.830;6.914;2023-12-29T02:45:11;9.40;99.90
52725;DHT22;38621;52.830;6.914;2023-12-29T02:47:37;9.50;99.90
52725;DHT22;38621;52.830;6.914;2023-12-29T02:50:03;9.50;99.90
52725;DHT22;38621;52.830;6.914;2023-12-29T02:52:28;9.50;99.90
52725;DHT22;38621;52.830;6.914;2023-12-29T02:54:54;9.50;99.90
52725;DHT22;38621;52.830;6.914;2023-12-29T02:57:20;9.50;99.90
52725;DHT22;38621;52.830;6.914;2023-12-29T02:59:45;9.60;99.90
52725;DHT22;38621;52.830;6.914;2023-12-29T03:02:11;9.70;99.90
52725;DHT22;38621;52.830;6.914;2023-12-29T03:04:37;9.70;99.90
52725;DHT22;38621;52.830;6.914;2023-12-29T03:07:02;9.70;99.90
52725;DHT22;38621;52.830;6.914;2023-12-29T03:09:28;9.70;99.90
52725;DHT22;38621;52.830;6.914;2023-12-29T03:11:54;9.70;99.90
52725;DHT22;38621;52.830;6.914;2023-12-29T03:14:19;9.70;99.90
52725;DHT22;38621;52.830;6.914;2023-12-29T03:16:45;9.70;99.90
52725;DHT22;38621;52.830;6.914;2023-12-29T03:19:11;9.80;99.90
52725;DHT22;38621;52.830;6.914;2023-12-29T03:21:36;9.80;99.90
52725;DHT22;38621;52.830;6.914;2023-12-29T03:24:02;9.80;99.90
52725;DHT22;38621;52.830;6.914;2023-12-29T03:26:28;9.90;99.90
52725;DHT22;38621;52.830;6.914;2023-12-29T03:28:55;9.90;99.90
52725;DHT22;38621;52.830;6.914;2023-12-29T03:31:20;9.90;99.90
52725;DHT22;38621;52.830;6.914;2023-12-29T03:33:46;9.90;99.90
52725;DHT22;38621;52.830;6.914;2023-12-29T03:36:12;9.80;99.90
52725;DHT22;38621;52.830;6.914;2023-12-29T03:38:38;9.80;99.90
52725;DHT22;38621;52.830;6.914;2023-12-29T03:41:03;9.80;99.90
52725;DHT22;38621;52.830;6.914;2023-12-29T03:43:29;9.80;99.90
52725;DHT22;38621;52.830;6.914;2023-12-29T03:45:55;9.70;99.90
52725;DHT22;38621;52.830;6.914;2023-12-29T03:48:20;9.70;99.90
52725;DHT22;38621;52.830;6.914;2023-12-29T03:50:47;9.70;99.90
52725;DHT22;38621;52.830;6.914;2023-12-29T03:53:12;9.70;99.90
52725;DHT22;38621;52.830;6.914;2023-12-29T03:55:40;9.70;99.90
52725;DHT22;38621;52.830;6.914;2023-12-29T03:58:06;9.70;99.90
52725;DHT22;38621;52.830;6.914;2023-12-29T04:00:32;9.70;99.90
52725;DHT22;38621;52.830;6.914;2023-12-29T04:02:58;9.70;99.90
52725;DHT22;38621;52.830;6.914;2023-12-29T04:05:23;9.60;99.90
52725;DHT22;38621;52.830;6.914;2023-12-29T04:07:49;9.60;99.90
52725;DHT22;38621;52.830;6.914;2023-12-29T04:10:15;9.60;99.90
52725;DHT22;38621;52.830;6.914;2023-12-29T04:12:40;9.60;99.90
52725;DHT22;38621;52.830;6.914;2023-12-29T04:15:06;9.60;99.90
52725;DHT22;38621;52.830;6.914;2023-12-29T04:17:32;9.60;99.90
52725;DHT22;38621;52.830;6.914;2023-12-29T04:19:58;9.60;99.90
52725;DHT22;38621;52.830;6.914;2023-12-29T04:22:23;9.60;99.90
52725;DHT22;38621;52.830;6.914;2023-12-29T04:24:49;9.60;99.90
52725;DHT22;38621;52.830;6.914;2023-12-29T04:27:15;9.60;99.90
52725;DHT22;38621;52.830;6.914;2023-12-29T04:29:40;9.60;99.90
52725;DHT22;38621;52.830;6.914;2023-12-29T04:32:06;9.60;99.90
52725;DHT22;38621;52.830;6.914;2023-12-29T04:34:32;9.60;99.90
52725;DHT22;38621;52.830;6.914;2023-12-29T04:36:58;9.60;99.90
52725;DHT22;38621;52.830;6.914;2023-12-29T04:39:24;9.60;99.90
52725;DHT22;38621;52.830;6.914;2023-12-29T04:41:50;9.70;99.90
52725;DHT22;38621;52.830;6.914;2023-12-29T04:44:16;9.60;99.90
52725;DHT22;38621;52.830;6.914;2023-12-29T04:46:41;9.60;99.90
52725;DHT22;38621;52.830;6.914;2023-12-29T04:49:08;9.60;99.90
52725;DHT22;38621;52.830;6.914;2023-12-29T04:51:34;9.60;99.90
52725;DHT22;38621;52.830;6.914;2023-12-29T04:53:59;9.60;99.90
52725;DHT22;38621;52.830;6.914;2023-12-29T04:56:25;9.50;99.90
52725;DHT22;38621;52.830;6.914;2023-12-29T04:58:51;9.50;99.90
52725;DHT22;38621;52.830;6.914;2023-12-29T05:01:17;9.50;99.90
52725;DHT22;38621;52.830;6.914;2023-12-29T05:03:43;9.50;99.90
52725;DHT22;38621;52.830;6.914;2023-12-29T05:06:08;9.50;99.90
52725;DHT22;38621;52.830;6.914;2023-12-29T05:08:34;9.50;99.90
52725;DHT22;38621;52.830;6.914;2023-12-29T05:11:00;9.50;99.90
52725;DHT22;38621;52.830;6.914;2023-12-29T05:13:26;9.60;99.90
52725;DHT22;38621;52.830;6.914;2023-12-29T05:15:52;9.60;99.90
52725;DHT22;38621;52.830;6.914;2023-12-29T05:18:17;9.60;99.90
52725;DHT22;38621;52.830;6.914;2023-12-29T05:20:43;9.50;99.90
52725;DHT22;38621;52.830;6.914;2023-12-29T05:23:09;9.40;99.90
52725;DHT22;38621;52.830;6.914;2023-12-29T05:25:34;9.50;99.90
52725;DHT22;38621;52.830;6.914;2023-12-29T05:28:00;9.50;99.90
52725;DHT22;38621;52.830;6.914;2023-12-29T05:30:26;9.50;99.90
52725;DHT22;38621;52.830;6.914;2023-12-29T05:32:56;9.40;99.90
52725;DHT22;38621;52.830;6.914;2023-12-29T05:35:22;9.40;99.90
52725;DHT22;38621;52.830;6.914;2023-12-29T05:37:48;9.40;99.90
52725;DHT22;38621;52.830;6.914;2023-12-29T05:40:15;9.40;99.90
52725;DHT22;38621;52.830;6.914;2023-12-29T05:42:41;9.40;99.90
52725;DHT22;38621;52.830;6.914;2023-12-29T05:45:07;9.40;99.90
52725;DHT22;38621;52.830;6.914;2023-12-29T05:47:32;9.50;99.90
52725;DHT22;38621;52.830;6.914;2023-12-29T05:49:58;9.50;99.90
52725;DHT22;38621;52.830;6.914;2023-12-29T05:52:24;9.40;99.90
52725;DHT22;38621;52.830;6.914;2023-12-29T05:54:50;9.50;99.90
52725;DHT22;38621;52.830;6.914;2023-12-29T05:57:15;9.40;99.90
52725;DHT22;38621;52.830;6.914;2023-12-29T05:59:41;9.40;99.90
52725;DHT22;38621;52.830;6.914;2023-12-29T06:02:07;9.50;99.90
52725;DHT22;38621;52.830;6.914;2023-12-29T06:04:32;9.40;99.90
52725;DHT22;38621;52.830;6.914;2023-12-29T06:06:58;9.40;99.90
52725;DHT22;38621;52.830;6.914;2023-12-29T06:09:24;9.50;99.90
52725;DHT22;38621;52.830;6.914;2023-12-29T06:11:50;9.40;99.90
52725;DHT22;38621;52.830;6.914;2023-12-29T06:14:15;9.40;99.90
52725;DHT22;38621;52.830;6.914;2023-12-29T06:16:41;9.40;99.90
52725;DHT22;38621;52.830;6.914;2023-12-29T06:19:08;9.40;99.90
52725;DHT22;38621;52.830;6.914;2023-12-29T06:21:35;9.40;99.90
52725;DHT22;38621;52.830;6.914;2023-12-29T06:24:05;9.40;99.90
52725;DHT22;38621;52.830;6.914;2023-12-29T06:26:31;9.40;99.90
52725;DHT22;38621;52.830;6.914;2023-12-29T06:28:57;9.40;99.90
52725;DHT22;38621;52.830;6.914;2023-12-29T06:31:22;9.50;99.90
52725;DHT22;38621;52.830;6.914;2023-12-29T06:33:48;9.50;99.90
52725;DHT22;38621;52.830;6.914;2023-12-29T06:36:14;9.50;99.90
52725;DHT22;38621;52.830;6.914;2023-12-29T06:38:39;9.60;99.90
52725;DHT22;38621;52.830;6.914;2023-12-29T06:41:05;9.50;99.90
52725;DHT22;38621;52.830;6.914;2023-12-29T06:43:31;9.50;99.90
52725;DHT22;38621;52.830;6.914;2023-12-29T06:45:57;9.50;99.90
52725;DHT22;38621;52.830;6.914;2023-12-29T06:48:22;9.40;99.90
52725;DHT22;38621;52.830;6.914;2023-12-29T06:50:48;9.40;99.90
52725;DHT22;38621;52.830;6.914;2023-12-29T06:53:14;9.30;99.90
52725;DHT22;38621;52.830;6.914;2023-12-29T06:55:40;9.20;99.90
52725;DHT22;38621;52.830;6.914;2023-12-29T06:58:05;9.20;99.90
52725;DHT22;38621;52.830;6.914;2023-12-29T07:00:31;9.10;99.90
52725;DHT22;38621;52.830;6.914;2023-12-29T07:02:57;9.00;99.90
52725;DHT22;38621;52.830;6.914;2023-12-29T07:05:22;9.00;99.90
52725;DHT22;38621;52.830;6.914;2023-12-29T07:07:48;9.00;99.90
52725;DHT22;38621;52.830;6.914;2023-12-29T07:10:14;9.00;99.90
52725;DHT22;38621;52.830;6.914;2023-12-29T07:12:43;9.00;99.90
52725;DHT22;38621;52.830;6.914;2023-12-29T07:15:09;9.00;99.90
52725;DHT22;38621;52.830;6.914;2023-12-29T07:17:35;9.00;99.90
52725;DHT22;38621;52.830;6.914;2023-12-29T07:20:01;9.00;99.90
52725;DHT22;38621;52.830;6.914;2023-12-29T07:22:26;9.00;99.90
52725;DHT22;38621;52.830;6.914;2023-12-29T07:24:52;9.00;99.90
52725;DHT22;38621;52.830;6.914;2023-12-29T07:27:18;8.90;99.90
52725;DHT22;38621;52.830;6.914;2023-12-29T07:29:44;8.80;99.90
52725;DHT22;38621;52.830;6.914;2023-12-29T07:32:10;8.60;99.90
52725;DHT22;38621;52.830;6.914;2023-12-29T07:34:35;8.40;99.90
52725;DHT22;38621;52.830;6.914;2023-12-29T07:37:01;8.30;99.90
52725;DHT22;38621;52.830;6.914;2023-12-29T07:39:27;8.30;99.90
52725;DHT22;38621;52.830;6.914;2023-12-29T07:41:52;8.20;99.90
52725;DHT22;38621;52.830;6.914;2023-12-29T07:44:19;8.20;99.90
52725;DHT22;38621;52.830;6.914;2023-12-29T07:46:45;8.20;99.90
52725;DHT22;38621;52.830;6.914;2023-12-29T07:49:10;8.30;99.90
52725;DHT22;38621;52.830;6.914;2023-12-29T07:51:40;8.40;99.90
52725;DHT22;38621;52.830;6.914;2023-12-29T07:54:07;8.40;99.90
52725;DHT22;38621;52.830;6.914;2023-12-29T07:56:33;8.50;99.90
52725;DHT22;38621;52.830;6.914;2023-12-29T07:58:59;8.60;99.90
52725;DHT22;38621;52.830;6.914;2023-12-29T08:01:24;8.60;99.90
52725;DHT22;38621;52.830;6.914;2023-12-29T08:03:51;8.60;99.90
52725;DHT22;38621;52.830;6.914;2023-12-29T08:06:16;8.60;99.90
52725;DHT22;38621;52.830;6.914;2023-12-29T08:08:42;8.50;99.90
52725;DHT22;38621;52.830;6.914;2023-12-29T08:11:17;8.50;99.90
52725;DHT22;38621;52.830;6.914;2023-12-29T08:13:48;8.60;99.90
52725;DHT22;38621;52.830;6.914;2023-12-29T08:16:15;8.70;99.90
52725;DHT22;38621;52.830;6.914;2023-12-29T08:18:43;8.60;99.90
52725;DHT22;38621;52.830;6.914;2023-12-29T08:21:08;8.60;99.90
52725;DHT22;38621;52.830;6.914;2023-12-29T08:23:34;8.60;99.90
52725;DHT22;38621;52.830;6.914;2023-12-29T08:26:02;8.60;99.90
52725;DHT22;38621;52.830;6.914;2023-12-29T08:28:28;8.70;99.90
52725;DHT22;38621;52.830;6.914;2023-12-29T08:30:53;8.80;99.90
52725;DHT22;38621;52.830;6.914;2023-12-29T08:33:19;8.80;99.90
52725;DHT22;38621;52.830;6.914;2023-12-29T08:35:45;8.90;99.90
52725;DHT22;38621;52.830;6.914;2023-12-29T08:38:11;8.90;99.90
52725;DHT22;38621;52.830;6.914;2023-12-29T08:40:37;9.00;99.90
52725;DHT22;38621;52.830;6.914;2023-12-29T08:43:03;8.90;99.90
52725;DHT22;38621;52.830;6.914;2023-12-29T08:45:29;8.90;99.90
52725;DHT22;38621;52.830;6.914;2023-12-29T08:47:54;8.90;99.90
52725;DHT22;38621;52.830;6.914;2023-12-29T08:50:20;8.90;99.90
52725;DHT22;38621;52.830;6.914;2023-12-29T08:52:47;8.90;99.90
52725;DHT22;38621;52.830;6.914;2023-12-29T08:55:12;8.90;99.90
52725;DHT22;38621;52.830;6.914;2023-12-29T08:57:38;9.00;99.90
52725;DHT22;38621;52.830;6.914;2023-12-29T09:00:04;9.00;99.90
52725;DHT22;38621;52.830;6.914;2023-12-29T09:02:30;8.80;99.90
52725;DHT22;38621;52.830;6.914;2023-12-29T09:04:59;8.60;99.90
52725;DHT22;38621;52.830;6.914;2023-12-29T09:07:24;8.40;99.90
52725;DHT22;38621;52.830;6.914;2023-12-29T09:09:50;8.30;99.90
52725;DHT22;38621;52.830;6.914;2023-12-29T09:12:16;8.20;99.90
52725;DHT22;38621;52.830;6.914;2023-12-29T09:14:42;8.20;99.90
52725;DHT22;38621;52.830;6.914;2023-12-29T09:17:07;8.30;99.90
52725;DHT22;38621;52.830;6.914;2023-12-29T09:19:33;8.50;99.90
52725;DHT22;38621;52.830;6.914;2023-12-29T09:21:59;8.60;99.90
52725;DHT22;38621;52.830;6.914;2023-12-29T09:24:25;8.70;99.90
52725;DHT22;38621;52.830;6.914;2023-12-29T09:26:50;8.80;99.90
52725;DHT22;38621;52.830;6.914;2023-12-29T09:29:17;8.90;99.90
52725;DHT22;38621;52.830;6.914;2023-12-29T09:31:43;8.90;99.90
52725;DHT22;38621;52.830;6.914;2023-12-29T09:34:09;9.00;99.90
52725;DHT22;38621;52.830;6.914;2023-12-29T09:36:34;9.00;99.90
52725;DHT22;38621;52.830;6.914;2023-12-29T09:39:01;9.10;99.90
52725;DHT22;38621;52.830;6.914;2023-12-29T09:41:31;9.20;99.90
52725;DHT22;38621;52.830;6.914;2023-12-29T09:43:58;9.30;99.90
52725;DHT22;38621;52.830;6.914;2023-12-29T09:46:24;9.30;99.90
52725;DHT22;38621;52.830;6.914;2023-12-29T09:48:52;9.30;99.90
52725;DHT22;38621;52.830;6.914;2023-12-29T09:51:20;9.30;99.90
52725;DHT22;38621;52.830;6.914;2023-12-29T09:53:49;9.20;99.90
52725;DHT22;38621;52.830;6.914;2023-12-29T09:56:16;9.20;99.90
52725;DHT22;38621;52.830;6.914;2023-12-29T09:58:42;9.20;99.90
52725;DHT22;38621;52.830;6.914;2023-12-29T10:01:09;9.20;99.90
52725;DHT22;38621;52.830;6.914;2023-12-29T10:03:34;9.20;99.90
52725;DHT22;38621;52.830;6.914;2023-12-29T10:06:00;9.30;99.90
52725;DHT22;38621;52.830;6.914;2023-12-29T10:08:29;9.30;99.90
52725;DHT22;38621;52.830;6.914;2023-12-29T10:10:58;9.40;99.90
52725;DHT22;38621;52.830;6.914;2023-12-29T10:13:25;9.40;99.90
52725;DHT22;38621;52.830;6.914;2023-12-29T10:19:00;9.30;99.90
52725;DHT22;38621;52.830;6.914;2023-12-29T10:21:38;9.30;99.90
52725;DHT22;38621;52.830;6.914;2023-12-29T10:24:18;9.20;99.90
52725;DHT22;38621;52.830;6.914;2023-12-29T10:26:44;9.20;99.90
52725;DHT22;38621;52.830;6.914;2023-12-29T10:29:11;9.20;99.90
52725;DHT22;38621;52.830;6.914;2023-12-29T10:31:38;9.20;99.90
52725;DHT22;38621;52.830;6.914;2023-12-29T10:34:23;9.00;99.90
52725;DHT22;38621;52.830;6.914;2023-12-29T10:37:02;8.90;99.90
52725;DHT22;38621;52.830;6.914;2023-12-29T10:39:37;8.90;99.90
52725;DHT22;38621;52.830;6.914;2023-12-29T10:44:37;8.70;99.90
52725;DHT22;38621;52.830;6.914;2023-12-29T10:47:09;8.70;99.90
52725;DHT22;38621;52.830;6.914;2023-12-29T10:49:35;8.50;99.90
52725;DHT22;38621;52.830;6.914;2023-12-29T10:52:14;8.40;99.90
52725;DHT22;38621;52.830;6.914;2023-12-29T10:54:41;8.20;99.90
52725;DHT22;38621;52.830;6.914;2023-12-29T10:57:11;8.10;99.90
52725;DHT22;38621;52.830;6.914;2023-12-29T10:59:37;8.00;99.90
52725;DHT22;38621;52.830;6.914;2023-12-29T11:02:03;8.00;99.90
52725;DHT22;38621;52.830;6.914;2023-12-29T11:04:29;8.00;99.90
52725;DHT22;38621;52.830;6.914;2023-12-29T11:06:55;8.00;99.90
52725;DHT22;38621;52.830;6.914;2023-12-29T11:09:29;8.10;99.90
52725;DHT22;38621;52.830;6.914;2023-12-29T11:12:00;8.20;99.90
52725;DHT22;38621;52.830;6.914;2023-12-29T11:14:26;8.40;99.90
52725;DHT22;38621;52.830;6.914;2023-12-29T11:16:56;8.50;99.90
52725;DHT22;38621;52.830;6.914;2023-12-29T11:19:22;8.70;99.90
52725;DHT22;38621;52.830;6.914;2023-12-29T11:21:57;8.90;99.90
52725;DHT22;38621;52.830;6.914;2023-12-29T11:24:23;9.00;99.90
52725;DHT22;38621;52.830;6.914;2023-12-29T11:26:49;9.00;99.90
52725;DHT22;38621;52.830;6.914;2023-12-29T11:29:18;9.10;99.90
52725;DHT22;38621;52.830;6.914;2023-12-29T11:31:45;9.10;99.90
52725;DHT22;38621;52.830;6.914;2023-12-29T11:34:35;9.10;99.90
52725;DHT22;38621;52.830;6.914;2023-12-29T11:40:22;9.20;99.90
52725;DHT22;38621;52.830;6.914;2023-12-29T11:42:53;9.20;99.90
52725;DHT22;38621;52.830;6.914;2023-12-29T11:45:30;9.20;99.90
52725;DHT22;38621;52.830;6.914;2023-12-29T11:48:01;9.20;99.90
52725;DHT22;38621;52.830;6.914;2023-12-29T11:50:33;9.20;99.90
52725;DHT22;38621;52.830;6.914;2023-12-29T11:52:59;9.20;99.90
52725;DHT22;38621;52.830;6.914;2023-12-29T11:55:34;9.30;99.90
52725;DHT22;38621;52.830;6.914;2023-12-29T11:58:01;9.30;99.90
52725;DHT22;38621;52.830;6.914;2023-12-29T12:00:44;9.30;99.90
52725;DHT22;38621;52.830;6.914;2023-12-29T12:03:18;9.30;99.90
52725;DHT22;38621;52.830;6.914;2023-12-29T12:05:47;9.20;99.90
52725;DHT22;38621;52.830;6.914;2023-12-29T12:08:33;9.30;99.90
52725;DHT22;38621;52.830;6.914;2023-12-29T12:13:57;9.30;99.90
52725;DHT22;38621;52.830;6.914;2023-12-29T12:19:11;9.40;99.90
52725;DHT22;38621;52.830;6.914;2023-12-29T12:21:37;9.40;99.90
52725;DHT22;38621;52.830;6.914;2023-12-29T12:24:04;9.40;99.90
52725;DHT22;38621;52.830;6.914;2023-12-29T12:26:34;9.40;99.90
52725;DHT22;38621;52.830;6.914;2023-12-29T12:29:03;9.50;99.90
52725;DHT22;38621;52.830;6.914;2023-12-29T12:31:29;9.50;99.90
52725;DHT22;38621;52.830;6.914;2023-12-29T12:33:59;9.60;99.90
52725;DHT22;38621;52.830;6.914;2023-12-29T12:36:28;9.60;99.90
52725;DHT22;38621;52.830;6.914;2023-12-29T12:38:57;9.60;99.90
52725;DHT22;38621;52.830;6.914;2023-12-29T12:41:26;9.60;99.90
52725;DHT22;38621;52.830;6.914;2023-12-29T12:46:26;9.70;99.90
52725;DHT22;38621;52.830;6.914;2023-12-29T12:48:53;9.70;99.90
52725;DHT22;38621;52.830;6.914;2023-12-29T12:51:21;9.70;99.90
52725;DHT22;38621;52.830;6.914;2023-12-29T12:53:47;9.70;99.90
52725;DHT22;38621;52.830;6.914;2023-12-29T12:56:15;9.70;99.90
52725;DHT22;38621;52.830;6.914;2023-12-29T12:58:42;9.70;99.90
52725;DHT22;38621;52.830;6.914;2023-12-29T13:01:08;9.70;99.90
52725;DHT22;38621;52.830;6.914;2023-12-29T13:03:34;9.60;99.90
52725;DHT22;38621;52.830;6.914;2023-12-29T13:06:02;9.70;99.90
52725;DHT22;38621;52.830;6.914;2023-12-29T13:08:30;9.60;99.90
52725;DHT22;38621;52.830;6.914;2023-12-29T13:10:56;9.60;99.90
52725;DHT22;38621;52.830;6.914;2023-12-29T13:13:23;9.60;99.90
52725;DHT22;38621;52.830;6.914;2023-12-29T13:15:50;9.60;99.90
52725;DHT22;38621;52.830;6.914;2023-12-29T13:18:16;9.60;99.90
52725;DHT22;38621;52.830;6.914;2023-12-29T13:20:47;9.60;99.90
52725;DHT22;38621;52.830;6.914;2023-12-29T13:23:14;9.60;99.90
52725;DHT22;38621;52.830;6.914;2023-12-29T13:25:40;9.60;99.90
52725;DHT22;38621;52.830;6.914;2023-12-29T13:28:08;9.50;99.90
52725;DHT22;38621;52.830;6.914;2023-12-29T13:30:35;9.50;99.90
52725;DHT22;38621;52.830;6.914;2023-12-29T13:33:10;9.50;99.90
52725;DHT22;38621;52.830;6.914;2023-12-29T13:35:45;9.40;99.90
52725;DHT22;38621;52.830;6.914;2023-12-29T13:38:28;9.50;99.90
52725;DHT22;38621;52.830;6.914;2023-12-29T13:40:59;9.50;99.90
52725;DHT22;38621;52.830;6.914;2023-12-29T13:43:29;9.50;99.90
52725;DHT22;38621;52.830;6.914;2023-12-29T13:45:56;9.50;99.90
52725;DHT22;38621;52.830;6.914;2023-12-29T13:48:22;9.50;99.90
52725;DHT22;38621;52.830;6.914;2023-12-29T13:50:49;9.40;99.90
52725;DHT22;38621;52.830;6.914;2023-12-29T13:53:18;9.40;99.90
52725;DHT22;38621;52.830;6.914;2023-12-29T13:55:44;9.50;99.90
52725;DHT22;38621;52.830;6.914;2023-12-29T13:58:10;9.50;99.90
52725;DHT22;38621;52.830;6.914;2023-12-29T14:00:37;9.50;99.90
52725;DHT22;38621;52.830;6.914;2023-12-29T14:03:18;9.50;99.90
52725;DHT22;38621;52.830;6.914;2023-12-29T14:05:55;9.50;99.90
52725;DHT22;38621;52.830;6.914;2023-12-29T14:08:44;9.50;99.90
52725;DHT22;38621;52.830;6.914;2023-12-29T14:11:10;9.50;99.90
52725;DHT22;38621;52.830;6.914;2023-12-29T14:13:46;9.50;99.90
52725;DHT22;38621;52.830;6.914;2023-12-29T14:16:13;9.50;99.90
52725;DHT22;38621;52.830;6.914;2023-12-29T14:21:24;9.50;99.90
52725;DHT22;38621;52.830;6.914;2023-12-29T14:24:12;9.50;99.90
52725;DHT22;38621;52.830;6.914;2023-12-29T14:26:40;9.50;99.90
52725;DHT22;38621;52.830;6.914;2023-12-29T14:29:11;9.50;99.90
52725;DHT22;38621;52.830;6.914;2023-12-29T14:31:44;9.40;99.90
52725;DHT22;38621;52.830;6.914;2023-12-29T14:34:10;9.40;99.90
52725;DHT22;38621;52.830;6.914;2023-12-29T14:36:38;9.30;99.90
52725;DHT22;38621;52.830;6.914;2023-12-29T14:39:05;9.30;99.90
52725;DHT22;38621;52.830;6.914;2023-12-29T14:41:32;9.30;99.90
52725;DHT22;38621;52.830;6.914;2023-12-29T14:43:58;9.20;99.90
52725;DHT22;38621;52.830;6.914;2023-12-29T14:46:24;9.20;99.90
52725;DHT22;38621;52.830;6.914;2023-12-29T14:48:50;9.20;99.90
52725;DHT22;38621;52.830;6.914;2023-12-29T14:51:16;9.20;99.90
52725;DHT22;38621;52.830;6.914;2023-12-29T14:53:47;9.20;99.90
52725;DHT22;38621;52.830;6.914;2023-12-29T14:56:14;9.20;99.90
52725;DHT22;38621;52.830;6.914;2023-12-29T14:58:40;9.20;99.90
52725;DHT22;38621;52.830;6.914;2023-12-29T15:01:07;9.20;99.90
52725;DHT22;38621;52.830;6.914;2023-12-29T15:03:33;9.20;99.90
52725;DHT22;38621;52.830;6.914;2023-12-29T15:05:59;9.20;99.90
52725;DHT22;38621;52.830;6.914;2023-12-29T15:08:25;9.20;99.90
52725;DHT22;38621;52.830;6.914;2023-12-29T15:10:51;9.20;99.90
52725;DHT22;38621;52.830;6.914;2023-12-29T15:13:17;9.10;99.90
52725;DHT22;38621;52.830;6.914;2023-12-29T15:15:43;9.00;99.90
52725;DHT22;38621;52.830;6.914;2023-12-29T15:18:09;9.10;99.90
52725;DHT22;38621;52.830;6.914;2023-12-29T15:20:34;9.10;99.90
52725;DHT22;38621;52.830;6.914;2023-12-29T15:23:00;9.00;99.90
52725;DHT22;38621;52.830;6.914;2023-12-29T15:25:28;9.00;99.90
52725;DHT22;38621;52.830;6.914;2023-12-29T15:27:54;9.00;99.90
52725;DHT22;38621;52.830;6.914;2023-12-29T15:30:20;8.90;99.90
52725;DHT22;38621;52.830;6.914;2023-12-29T15:32:45;8.80;99.90
52725;DHT22;38621;52.830;6.914;2023-12-29T15:35:11;8.80;99.90
52725;DHT22;38621;52.830;6.914;2023-12-29T15:37:37;8.80;99.90
52725;DHT22;38621;52.830;6.914;2023-12-29T15:40:03;8.80;99.90
52725;DHT22;38621;52.830;6.914;2023-12-29T15:42:32;8.80;99.90
52725;DHT22;38621;52.830;6.914;2023-12-29T15:44:58;8.80;99.90
52725;DHT22;38621;52.830;6.914;2023-12-29T15:47:24;8.70;99.90
52725;DHT22;38621;52.830;6.914;2023-12-29T15:49:49;8.70;99.90
52725;DHT22;38621;52.830;6.914;2023-12-29T15:52:15;8.70;99.90
52725;DHT22;38621;52.830;6.914;2023-12-29T15:54:41;8.60;99.90
52725;DHT22;38621;52.830;6.914;2023-12-29T15:57:07;8.70;99.90
52725;DHT22;38621;52.830;6.914;2023-12-29T15:59:37;8.70;99.90
52725;DHT22;38621;52.830;6.914;2023-12-29T16:02:02;8.80;99.90
52725;DHT22;38621;52.830;6.914;2023-12-29T16:04:29;8.70;99.90
52725;DHT22;38621;52.830;6.914;2023-12-29T16:06:55;8.80;99.90